createdAt,value
2018-12-19T00:02:03.820Z,21.20
2018-12-19T00:07:06.448Z,21.57
2018-12-19T00:12:09.040Z,20.57
2018-12-19T00:17:11.612Z,19.87
2018-12-19T00:22:14.180Z,23.33
2018-12-19T00:27:16.862Z,20.60
2018-12-19T00:32:19.814Z,20.77
2018-12-19T00:37:23.150Z,21.57
2018-12-19T00:42:25.794Z,18.63
2018-12-19T00:47:28.643Z,19.27
2018-12-19T00:52:31.489Z,19.83
2018-12-19T00:57:34.198Z,19.97
2018-12-19T01:02:36.851Z,19.27
2018-12-19T01:07:39.436Z,18.37
2018-12-19T01:12:42.005Z,17.73
2018-12-19T01:17:44.753Z,16.77
2018-12-19T01:22:47.358Z,15.90
2018-12-19T01:27:50.494Z,14.50
2018-12-19T01:32:53.120Z,14.27
2018-12-19T01:37:55.793Z,14.73
2018-12-19T01:42:58.397Z,14.70
2018-12-19T01:48:00.998Z,14.70
2018-12-19T01:53:03.613Z,15.83
2018-12-19T01:58:06.411Z,13.67
2018-12-19T02:03:09.106Z,15.53
2018-12-19T02:08:12.524Z,18.57
2018-12-19T02:13:15.323Z,15.80
2018-12-19T02:18:18.115Z,15.47
2018-12-19T02:23:20.677Z,14.30
2018-12-19T02:28:23.296Z,15.67
2018-12-19T02:33:26.605Z,14.80
2018-12-19T02:38:29.379Z,12.33
2018-12-19T02:43:32.815Z,13.50
2018-12-19T02:48:35.382Z,14.53
2018-12-19T02:53:37.950Z,12.13
2018-12-19T02:58:40.617Z,13.17
2018-12-19T03:03:43.237Z,11.63
2018-12-19T03:08:46.017Z,11.50
2018-12-19T03:13:50.766Z,11.90
2018-12-19T03:18:53.629Z,12.60
2018-12-19T03:23:56.282Z,11.50
2018-12-19T03:28:58.958Z,12.17
2018-12-19T03:34:01.654Z,12.13
2018-12-19T03:39:06.506Z,11.13
2018-12-19T03:44:09.200Z,13.47
2018-12-19T03:49:11.883Z,10.30
2018-12-19T03:54:14.497Z,10.40
2018-12-19T03:59:17.180Z,10.20
2018-12-19T04:04:19.960Z,9.47
2018-12-19T04:09:22.650Z,10.83
2018-12-19T04:14:25.350Z,11.57
2018-12-19T04:19:27.900Z,11.00
2018-12-19T04:24:30.481Z,10.53
2018-12-19T04:29:33.834Z,10.53
2018-12-19T04:34:36.408Z,11.90
2018-12-19T04:39:39.176Z,10.07
2018-12-19T04:44:41.763Z,10.60
2018-12-19T04:49:44.638Z,10.70
2018-12-19T04:54:47.268Z,10.90
2018-12-19T04:59:50.201Z,10.65
2018-12-19T05:04:52.777Z,10.50
2018-12-19T05:09:55.581Z,11.47
2018-12-19T05:14:58.164Z,10.27
2018-12-19T05:20:00.964Z,11.27
2018-12-19T05:25:06.977Z,13.03
2018-12-19T05:30:10.060Z,13.63
2018-12-19T05:35:13.001Z,14.50
2018-12-19T05:40:18.770Z,11.87
2018-12-19T05:45:20.449Z,11.30
2018-12-19T05:50:23.481Z,13.33
2018-12-19T05:55:26.102Z,12.30
2018-12-19T06:00:29.167Z,13.63
2018-12-19T06:05:31.881Z,12.23
2018-12-19T06:10:34.474Z,13.60
2018-12-19T06:15:37.029Z,13.33
2018-12-19T06:20:39.789Z,13.38
2018-12-19T06:25:42.488Z,14.17
2018-12-19T06:30:45.288Z,16.37
2018-12-19T06:35:47.832Z,15.00
2018-12-19T06:40:50.449Z,13.70
2018-12-19T06:45:53.053Z,14.50
2018-12-19T06:50:55.681Z,14.50
2018-12-19T06:55:58.355Z,13.50
2018-12-19T07:01:01.120Z,14.97
2018-12-19T07:06:03.715Z,13.80
2018-12-19T07:11:06.306Z,15.30
2018-12-19T07:16:08.953Z,13.83
2018-12-19T07:21:11.521Z,15.00
2018-12-19T07:26:14.134Z,16.03
2018-12-19T07:31:16.724Z,14.70
2018-12-19T07:36:19.305Z,17.80
2018-12-19T07:41:22.031Z,16.37
2018-12-19T07:46:24.906Z,17.53
2018-12-19T07:51:27.978Z,15.20
2018-12-19T07:56:30.877Z,16.13
2018-12-19T08:01:34.062Z,16.83
2018-12-19T08:06:36.769Z,15.33
2018-12-19T08:11:40.072Z,17.73
2018-12-19T08:16:42.711Z,18.77
2018-12-19T08:21:45.372Z,16.53
2018-12-19T08:26:48.104Z,17.07
2018-12-19T08:31:50.649Z,15.20
2018-12-19T08:36:53.212Z,17.83
2018-12-19T08:41:56.249Z,14.53
2018-12-19T08:46:59.043Z,16.73
2018-12-19T08:52:01.685Z,15.77
2018-12-19T08:57:04.308Z,17.20
2018-12-19T09:02:06.935Z,15.13
2018-12-19T09:07:09.948Z,15.43
2018-12-19T09:12:12.625Z,15.70
2018-12-19T09:17:15.954Z,15.30
2018-12-19T09:22:19.147Z,15.47
2018-12-19T09:27:21.814Z,15.77
2018-12-19T09:32:24.755Z,15.17
2018-12-19T09:37:27.349Z,13.20
2018-12-19T09:42:30.045Z,16.23
2018-12-19T09:47:32.716Z,16.80
2018-12-19T09:52:35.639Z,13.97
2018-12-19T09:57:39.356Z,14.53
2018-12-19T10:02:42.077Z,14.97
2018-12-19T10:07:44.745Z,14.53
2018-12-19T10:12:48.175Z,15.50
2018-12-19T10:17:50.796Z,16.03
2018-12-19T10:22:54.888Z,15.80
2018-12-19T10:27:58.133Z,16.23
2018-12-19T10:33:00.899Z,16.57
2018-12-19T10:38:03.699Z,17.00
2018-12-19T10:43:06.255Z,20.97
2018-12-19T10:48:09.061Z,14.47
2018-12-19T10:53:11.931Z,16.43
2018-12-19T10:58:14.691Z,13.60
2018-12-19T11:03:17.406Z,16.10
2018-12-19T11:08:20.426Z,14.93
2018-12-19T11:13:23.109Z,15.97
2018-12-19T11:18:25.812Z,15.50
2018-12-19T11:23:30.307Z,14.73
2018-12-19T11:28:32.935Z,15.90
2018-12-19T11:33:35.583Z,18.10
2018-12-19T11:38:38.224Z,17.47
2018-12-19T11:43:40.890Z,18.60
2018-12-19T11:48:43.624Z,15.60
2018-12-19T11:53:46.464Z,18.17
2018-12-19T11:58:49.225Z,19.07
2018-12-19T12:03:51.976Z,18.00
2018-12-19T12:08:54.526Z,19.20
2018-12-19T12:13:57.065Z,21.80
2018-12-19T12:18:59.707Z,19.23
2018-12-19T12:24:02.471Z,22.90
2018-12-19T12:29:05.306Z,19.00
2018-12-19T12:34:08.097Z,18.07
2018-12-19T12:39:10.674Z,17.53
2018-12-19T12:44:13.265Z,18.03
2018-12-19T12:49:15.809Z,21.97
2018-12-19T12:54:19.174Z,16.97
2018-12-19T12:59:22.081Z,18.57
2018-12-19T13:04:24.910Z,19.83
2018-12-19T13:09:27.514Z,19.07
2018-12-19T13:14:30.301Z,20.50
2018-12-19T13:19:32.958Z,18.10
2018-12-19T13:24:36.003Z,18.50
2018-12-19T13:29:38.797Z,19.27
2018-12-19T13:34:41.706Z,20.60
2018-12-19T13:39:44.849Z,18.63
2018-12-19T13:44:47.431Z,18.87
2018-12-19T13:49:50.202Z,21.20
2018-12-19T13:54:52.826Z,19.33
2018-12-19T13:59:55.410Z,19.57
2018-12-19T14:04:58.096Z,18.90
2018-12-19T14:10:01.426Z,21.20
2018-12-19T14:15:04.874Z,18.77
2018-12-19T14:20:08.325Z,21.83
2018-12-19T14:25:11.826Z,21.07
2018-12-19T14:30:14.445Z,20.13
2018-12-19T14:35:17.659Z,19.80
2018-12-19T14:40:20.249Z,21.93
2018-12-19T14:45:23.099Z,22.03
2018-12-19T14:50:26.888Z,22.87
2018-12-19T14:55:29.493Z,20.03
2018-12-19T15:00:32.122Z,24.13
2018-12-19T15:05:34.725Z,21.83
2018-12-19T15:10:37.355Z,24.40
2018-12-19T15:15:40.053Z,22.57
2018-12-19T15:20:43.256Z,22.33
2018-12-19T15:25:46.037Z,23.60
2018-12-19T15:30:48.745Z,26.10
2018-12-19T15:35:51.438Z,25.80
2018-12-19T15:40:54.146Z,23.90
2018-12-19T15:45:57.062Z,25.20
2018-12-19T15:50:59.774Z,24.87
2018-12-19T15:56:02.364Z,23.17
2018-12-19T16:01:05.106Z,26.13
2018-12-19T16:06:07.985Z,27.17
2018-12-19T16:11:10.856Z,24.30
2018-12-19T16:16:13.502Z,25.83
2018-12-19T16:21:16.061Z,29.07
2018-12-19T16:26:18.619Z,27.33
2018-12-19T16:31:21.180Z,28.67
2018-12-19T16:36:23.827Z,27.33
2018-12-19T16:41:27.421Z,28.13
2018-12-19T16:46:30.251Z,30.40
2018-12-19T16:51:32.892Z,29.80
2018-12-19T16:56:35.656Z,29.23
2018-12-19T17:01:39.179Z,30.53
2018-12-19T17:06:41.781Z,28.60
2018-12-19T17:11:44.394Z,30.77
2018-12-19T17:16:47.054Z,29.90
2018-12-19T17:21:49.751Z,29.37
2018-12-19T17:26:52.298Z,31.43
2018-12-19T17:31:55.463Z,31.70
2018-12-19T17:36:58.079Z,33.17
2018-12-19T17:42:01.699Z,31.43
2018-12-19T17:47:04.540Z,34.23
2018-12-19T17:52:07.269Z,31.33
2018-12-19T17:57:09.821Z,35.03
2018-12-19T18:02:12.600Z,33.57
2018-12-19T18:07:15.260Z,32.60
2018-12-19T18:12:17.959Z,34.87
2018-12-19T18:17:20.634Z,37.17
2018-12-19T18:22:23.455Z,35.03
2018-12-19T18:27:26.047Z,34.00
2018-12-19T18:32:28.693Z,36.83
2018-12-19T18:37:31.263Z,35.20
2018-12-19T18:42:33.994Z,36.60
2018-12-19T18:47:37.297Z,38.20
2018-12-19T18:52:40.583Z,37.97
2018-12-19T18:57:43.260Z,39.47
2018-12-19T19:02:46.417Z,38.70
2018-12-19T19:07:49.190Z,36.43
2018-12-19T19:12:51.799Z,39.00
2018-12-19T19:17:54.386Z,36.97
2018-12-19T19:22:57.865Z,38.67
2018-12-19T19:28:00.521Z,38.60
2018-12-19T19:33:03.245Z,35.83
2018-12-19T19:43:12.690Z,36.73
2018-12-19T19:48:15.230Z,37.63
2018-12-19T19:53:18.112Z,36.57
2018-12-19T19:58:20.846Z,36.43
2018-12-19T20:03:23.650Z,35.97
2018-12-19T20:08:26.243Z,37.27
2018-12-19T20:13:33.303Z,35.05
2018-12-19T20:18:33.599Z,36.83
2018-12-19T20:23:36.246Z,64.40
2018-12-19T20:28:38.833Z,35.97
2018-12-19T20:33:41.433Z,35.03
2018-12-19T20:38:44.114Z,36.93
2018-12-19T20:43:46.854Z,35.70
2018-12-19T20:48:50.181Z,38.47
2018-12-19T20:53:53.502Z,36.23
2018-12-19T20:58:56.810Z,41.53
2018-12-19T21:03:59.509Z,39.03
2018-12-19T21:09:02.826Z,38.53
2018-12-19T21:14:05.488Z,34.37
2018-12-19T21:19:08.124Z,36.70
2018-12-19T21:24:10.815Z,36.27
2018-12-19T21:29:13.565Z,33.40
2018-12-19T21:34:16.310Z,36.00
2018-12-19T21:39:19.214Z,37.17
2018-12-19T21:44:22.037Z,36.57
2018-12-19T21:49:24.825Z,33.43
2018-12-19T21:54:27.802Z,33.07
2018-12-19T21:59:30.405Z,36.60
2018-12-19T22:04:33.007Z,30.87
2018-12-19T22:09:36.170Z,34.03
2018-12-19T22:14:38.789Z,35.07
2018-12-19T22:19:41.508Z,34.30
2018-12-19T22:24:45.123Z,36.73
2018-12-19T22:29:47.758Z,35.10
2018-12-19T22:34:50.941Z,35.63
2018-12-19T22:39:53.718Z,35.30
2018-12-19T22:44:56.399Z,32.00
2018-12-19T22:49:59.217Z,33.13
2018-12-19T22:55:01.850Z,34.00
2018-12-19T23:00:08.333Z,38.03
2018-12-19T23:05:11.219Z,37.33
2018-12-19T23:10:14.459Z,37.50
2018-12-19T23:15:19.229Z,35.57
2018-12-19T23:20:22.003Z,37.57
2018-12-19T23:25:24.699Z,39.60
2018-12-19T23:30:28.239Z,40.13
2018-12-19T23:35:31.057Z,39.77
2018-12-19T23:40:33.831Z,39.57
2018-12-19T23:45:36.646Z,37.80
2018-12-19T23:50:39.889Z,40.33
2018-12-19T23:55:42.582Z,38.93
